Terminal Aerodrome Forecast
Issued by NWS

Home | Current Version | Previous Version | Text Only | Print | Product List | Glossary On
Versions: 1 2 3 4 5 6 7 8 9 10 11 12 13 14 15 16 17 18 19 20 21 22 23 24 25 26 27 28 29 30 31 32 33 34 35 36 37 38 39 40 41
000
FTUS45 KGJT 280025 AAA
TAFEGE
TAF AMD
KEGE 280025Z 2800/2824 04008KT P6SM VCSH SCT040 BKN070
     FM280200 02005KT P6SM VCSH SCT040 BKN060
     FM280800 00000KT P6SM FEW005 BKN040
     FM281200 24003KT P6SM SCT040 BKN100
     FM282000 25008G16KT P6SM SCT050
      AMD LTD TO CLD VIS AND WIND 2802/2813=

USA.gov is the U.S. government's official web portal to all federal, state and local government web resources and services.